Time;durP1;ratioP1;P1;durP2;ratioP2;P2;SDS_P1;SDS_P2;PMS_P1;PMS_P2;Temp;Humidity;BMP_temperature;BMP_pressure;BME280_temperature;BME280_humidity;BME280_pressure;Samples;Min_cycle;Max_cycle;Signal;HPM_P1;HPM_P2
2024/04/16 00:00:43;;;;;;;13.43;3.13;;;;;;;;;;2252753;26;20416;-67
2024/04/16 00:01:45;;;;;;;19.45;3.55;;;;;;;;;;2255506;26;19998;-66
2024/04/16 00:02:46;;;;;;;16.50;3.55;;;;;;;;;;2255815;26;20010;-70
2024/04/16 00:03:47;;;;;;;19.75;2.78;;;;;;;;;;2255736;26;20071;-69
2024/04/16 00:04:49;;;;;;;17.17;3.08;;;;;;;;;;2255615;26;20002;-70
2024/04/16 00:05:50;;;;;;;11.82;2.92;;;;;;;;;;2255692;26;20022;-70
2024/04/16 00:06:52;;;;;;;17.42;3.50;;;;;;;;;;2255631;26;20020;-69
2024/04/16 00:07:56;;;;;;;23.67;4.03;;;;;;;;;;2253617;26;19999;-68
2024/04/16 00:08:57;;;;;;;30.52;4.50;;;;;;;;;;2255755;26;20010;-69
2024/04/16 00:09:58;;;;;;;19.55;4.75;;;;;;;;;;2255622;26;20439;-69
2024/04/16 00:11:00;;;;;;;18.20;4.20;;;;;;;;;;2257055;26;19999;-69
2024/04/16 00:12:02;;;;;;;18.27;4.03;;;;;;;;;;2270602;26;20034;-68
2024/04/16 00:13:04;;;;;;;17.30;4.15;;;;;;;;;;2268536;26;20013;-69
2024/04/16 00:14:05;;;;;;;23.33;4.32;;;;;;;;;;2270368;26;19993;-70
2024/04/16 00:15:07;;;;;;;23.02;4.15;;;;;;;;;;2270914;26;20431;-68
2024/04/16 00:16:08;;;;;;;20.35;4.50;;;;;;;;;;2270680;26;20002;-68
2024/04/16 00:17:10;;;;;;;16.25;3.45;;;;;;;;;;2270601;26;20336;-69
2024/04/16 00:18:11;;;;;;;14.23;4.38;;;;;;;;;;2270462;26;20009;-69
2024/04/16 00:19:12;;;;;;;18.40;4.70;;;;;;;;;;2268070;26;20099;-69
2024/04/16 00:20:14;;;;;;;17.95;4.80;;;;;;;;;;2270678;26;20034;-69
2024/04/16 00:21:15;;;;;;;24.58;5.82;;;;;;;;;;2270569;26;20384;-69
2024/04/16 00:22:17;;;;;;;17.30;4.55;;;;;;;;;;2270628;26;20012;-68
2024/04/16 00:23:19;;;;;;;24.80;4.82;;;;;;;;;;2270501;26;20036;-69
2024/04/16 00:24:20;;;;;;;25.77;4.65;;;;;;;;;;2270833;26;20002;-69
2024/04/16 00:25:22;;;;;;;22.77;5.43;;;;;;;;;;2270438;26;19998;-69
2024/04/16 00:26:24;;;;;;;20.45;4.20;;;;;;;;;;2268355;26;20013;-70
2024/04/16 00:27:25;;;;;;;17.20;4.65;;;;;;;;;;2270539;26;20009;-69
2024/04/16 00:28:26;;;;;;;14.95;4.45;;;;;;;;;;2270512;26;20435;-69
2024/04/16 00:29:28;;;;;;;13.65;4.30;;;;;;;;;;2270439;26;19997;-69
2024/04/16 00:30:29;;;;;;;19.13;5.25;;;;;;;;;;2271027;26;20018;-69
2024/04/16 00:31:31;;;;;;;17.90;4.82;;;;;;;;;;2270572;26;19994;-69
2024/04/16 00:32:32;;;;;;;20.30;5.05;;;;;;;;;;2267795;26;20017;-69
2024/04/16 00:33:33;;;;;;;20.58;5.18;;;;;;;;;;2270382;26;20074;-69
2024/04/16 00:34:35;;;;;;;14.63;3.83;;;;;;;;;;2270570;26;19994;-69
2024/04/16 00:35:36;;;;;;;19.38;5.03;;;;;;;;;;2270561;26;20440;-68
2024/04/16 00:36:38;;;;;;;16.38;4.32;;;;;;;;;;2270696;26;20292;-71
2024/04/16 00:37:39;;;;;;;20.05;4.80;;;;;;;;;;2270653;26;20461;-69
2024/04/16 00:38:40;;;;;;;18.63;5.18;;;;;;;;;;2270642;26;20006;-70
2024/04/16 00:39:42;;;;;;;19.83;4.07;;;;;;;;;;2268213;26;20065;-70
2024/04/16 00:40:44;;;;;;;17.70;5.40;;;;;;;;;;2270737;26;20566;-69
2024/04/16 00:41:49;;;;;;;26.98;5.60;;;;;;;;;;2270665;26;20327;-70
2024/04/16 00:42:51;;;;;;;19.52;5.15;;;;;;;;;;2270876;26;20020;-68
2024/04/16 00:43:52;;;;;;;15.98;5.22;;;;;;;;;;2268137;26;20432;-70
2024/04/16 00:44:54;;;;;;;22.85;5.28;;;;;;;;;;2270041;26;19998;-70
2024/04/16 00:45:55;;;;;;;21.23;5.85;;;;;;;;;;2270659;26;20324;-69
2024/04/16 00:46:57;;;;;;;20.52;5.22;;;;;;;;;;2270725;26;20076;-70
2024/04/16 00:47:58;;;;;;;24.17;5.80;;;;;;;;;;2269247;26;20392;-70
2024/04/16 00:49:00;;;;;;;28.92;4.75;;;;;;;;;;2270620;26;19998;-68
2024/04/16 00:50:01;;;;;;;21.38;5.32;;;;;;;;;;2253195;26;19999;-69
2024/04/16 00:51:03;;;;;;;15.30;4.80;;;;;;;;;;2252482;26;20002;-70
2024/04/16 00:52:06;;;;;;;16.67;4.45;;;;;;;;;;2254417;26;19998;-70
2024/04/16 00:53:07;;;;;;;22.83;4.68;;;;;;;;;;2254953;26;20039;-69
2024/04/16 00:54:10;;;;;;;16.90;4.95;;;;;;;;;;2270474;26;20002;-69
2024/04/16 00:55:11;;;;;;;21.27;4.18;;;;;;;;;;2270660;26;19998;-70
2024/04/16 00:56:13;;;;;;;16.80;5.18;;;;;;;;;;2268173;26;20332;-70
2024/04/16 00:57:15;;;;;;;22.88;5.10;;;;;;;;;;2270594;26;20030;-70
2024/04/16 00:58:17;;;;;;;18.13;5.05;;;;;;;;;;2270665;26;20070;-71
2024/04/16 00:59:18;;;;;;;24.40;5.82;;;;;;;;;;2270694;26;19998;-69
2024/04/16 01:00:20;;;;;;;23.25;5.47;;;;;;;;;;2254243;26;20340;-69
2024/04/16 01:01:21;;;;;;;28.15;5.28;;;;;;;;;;2240036;26;20008;-67
2024/04/16 01:02:22;;;;;;;22.90;4.63;;;;;;;;;;2254353;26;19999;-68
2024/04/16 01:03:25;;;;;;;16.27;4.20;;;;;;;;;;2268637;26;20009;-66
2024/04/16 01:04:26;;;;;;;19.60;4.68;;;;;;;;;;2270367;26;20049;-69
2024/04/16 01:05:28;;;;;;;20.77;4.40;;;;;;;;;;2254343;26;20030;-69
2024/04/16 01:06:31;;;;;;;22.90;4.45;;;;;;;;;;2255108;26;20010;-69
2024/04/16 01:07:33;;;;;;;18.23;5.07;;;;;;;;;;2267761;26;20017;-70
2024/04/16 01:08:34;;;;;;;20.00;4.70;;;;;;;;;;2270698;26;20012;-69
2024/04/16 01:09:36;;;;;;;14.68;4.55;;;;;;;;;;2270261;26;20427;-70
2024/04/16 01:10:38;;;;;;;19.95;4.85;;;;;;;;;;2270589;26;20454;-70
2024/04/16 01:11:40;;;;;;;18.55;4.60;;;;;;;;;;2270336;26;19994;-70
2024/04/16 01:12:42;;;;;;;18.20;4.07;;;;;;;;;;2270388;26;20410;-70
2024/04/16 01:13:43;;;;;;;17.10;4.50;;;;;;;;;;2268150;26;20009;-70
2024/04/16 01:14:44;;;;;;;17.17;4.55;;;;;;;;;;2270313;26;20071;-70
2024/04/16 01:15:47;;;;;;;21.40;4.70;;;;;;;;;;2270590;26;20006;-70
2024/04/16 01:16:48;;;;;;;13.38;4.18;;;;;;;;;;2270434;26;20025;-70
2024/04/16 01:17:50;;;;;;;13.40;4.32;;;;;;;;;;2270373;26;19997;-70
2024/04/16 01:18:52;;;;;;;18.63;4.65;;;;;;;;;;2270576;26;20009;-71
2024/04/16 01:19:54;;;;;;;20.38;4.70;;;;;;;;;;2268228;26;20012;-70
2024/04/16 01:20:55;;;;;;;16.52;4.22;;;;;;;;;;2270404;26;19998;-67
2024/04/16 01:21:58;;;;;;;17.75;5.50;;;;;;;;;;2270390;26;20002;-70
2024/04/16 01:22:59;;;;;;;18.50;5.18;;;;;;;;;;2270500;26;20070;-70
2024/04/16 01:24:00;;;;;;;25.95;4.45;;;;;;;;;;2270444;26;19998;-70
2024/04/16 01:25:03;;;;;;;14.43;4.55;;;;;;;;;;2267854;26;20366;-70
2024/04/16 01:26:04;;;;;;;13.32;4.50;;;;;;;;;;2270429;26;20014;-70
2024/04/16 01:27:05;;;;;;;14.18;4.47;;;;;;;;;;2270507;26;20008;-71
2024/04/16 01:28:08;;;;;;;20.08;4.13;;;;;;;;;;2270328;26;20012;-69
2024/04/16 01:29:09;;;;;;;18.58;3.95;;;;;;;;;;2270203;26;20006;-70
2024/04/16 01:30:11;;;;;;;16.60;3.72;;;;;;;;;;2270035;26;19998;-70
2024/04/16 01:31:17;;;;;;;14.50;3.50;;;;;;;;;;2268152;26;20020;-69
2024/04/16 01:32:18;;;;;;;12.43;3.95;;;;;;;;;;2254342;26;20035;-70
2024/04/16 01:33:20;;;;;;;18.08;4.10;;;;;;;;;;2254281;26;20007;-70
2024/04/16 01:34:21;;;;;;;14.10;4.88;;;;;;;;;;2270270;26;20443;-70
2024/04/16 01:35:23;;;;;;;21.50;4.70;;;;;;;;;;2267875;26;20025;-71
2024/04/16 01:36:24;;;;;;;14.13;3.63;;;;;;;;;;2270363;26;20013;-70
2024/04/16 01:37:26;;;;;;;14.25;3.95;;;;;;;;;;2270204;26;20002;-71
2024/04/16 01:38:27;;;;;;;20.02;4.05;;;;;;;;;;2270265;26;20400;-70
2024/04/16 01:39:29;;;;;;;15.82;4.10;;;;;;;;;;2270152;26;19998;-70
2024/04/16 01:40:30;;;;;;;18.88;3.90;;;;;;;;;;2270390;26;20002;-70
2024/04/16 01:41:32;;;;;;;15.73;4.22;;;;;;;;;;2270264;26;19994;-71
2024/04/16 01:42:33;;;;;;;17.50;3.88;;;;;;;;;;2251963;26;20010;-69
2024/04/16 01:43:34;;;;;;;15.00;4.53;;;;;;;;;;2254662;26;20075;-69
2024/04/16 01:44:36;;;;;;;16.27;4.30;;;;;;;;;;2270114;26;20005;-70
2024/04/16 01:45:37;;;;;;;15.95;4.15;;;;;;;;;;2269937;26;20336;-70
2024/04/16 01:46:39;;;;;;;16.52;4.10;;;;;;;;;;2254343;26;20023;-67
2024/04/16 01:47:40;;;;;;;13.13;3.88;;;;;;;;;;2254488;26;20354;-69
2024/04/16 01:48:42;;;;;;;11.50;3.15;;;;;;;;;;2270173;26;19998;-70
2024/04/16 01:49:43;;;;;;;18.52;3.80;;;;;;;;;;2251965;26;20007;-70
2024/04/16 01:50:45;;;;;;;18.42;3.95;;;;;;;;;;2254483;26;20006;-68
2024/04/16 01:51:47;;;;;;;12.63;3.42;;;;;;;;;;2270159;26;20039;-67
2024/04/16 01:52:49;;;;;;;12.50;2.65;;;;;;;;;;2270143;26;20429;-70
2024/04/16 01:53:50;;;;;;;11.40;2.67;;;;;;;;;;2269956;26;20002;-67
2024/04/16 01:54:52;;;;;;;9.43;2.80;;;;;;;;;;2270177;26;20005;-69
2024/04/16 01:55:53;;;;;;;8.20;2.08;;;;;;;;;;2267939;26;20121;-69
2024/04/16 01:56:54;;;;;;;6.63;2.42;;;;;;;;;;2270119;26;20031;-69
2024/04/16 01:57:56;;;;;;;10.55;2.25;;;;;;;;;;2253932;26;20005;-69
2024/04/16 01:58:58;;;;;;;6.05;2.00;;;;;;;;;;2254841;26;20006;-70
2024/04/16 02:00:00;;;;;;;8.93;2.08;;;;;;;;;;2269958;26;20381;-69
2024/04/16 02:01:01;;;;;;;7.45;2.38;;;;;;;;;;2270232;26;19998;-69
2024/04/16 02:02:02;;;;;;;10.88;1.63;;;;;;;;;;2269978;26;20021;-70
2024/04/16 02:03:04;;;;;;;11.65;2.45;;;;;;;;;;2267973;26;20005;-69
2024/04/16 02:04:05;;;;;;;10.07;2.35;;;;;;;;;;2253291;26;20011;-68
2024/04/16 02:05:07;;;;;;;12.07;2.25;;;;;;;;;;2254130;26;20027;-69
2024/04/16 02:06:08;;;;;;;13.05;2.00;;;;;;;;;;2270133;26;20035;-70
2024/04/16 02:07:11;;;;;;;6.53;1.63;;;;;;;;;;2270056;26;20009;-68
2024/04/16 02:08:12;;;;;;;5.88;1.90;;;;;;;;;;2270298;26;20081;-67
2024/04/16 02:09:14;;;;;;;8.30;2.58;;;;;;;;;;2251926;26;19999;-70
2024/04/16 02:10:16;;;;;;;8.68;2.08;;;;;;;;;;2254420;26;20003;-69
2024/04/16 02:11:17;;;;;;;10.13;1.95;;;;;;;;;;2269893;26;20332;-69
2024/04/16 02:12:18;;;;;;;10.50;1.98;;;;;;;;;;2270019;26;20002;-71
2024/04/16 02:13:20;;;;;;;10.15;2.10;;;;;;;;;;2269903;26;20101;-70
2024/04/16 02:14:21;;;;;;;7.10;2.33;;;;;;;;;;2253728;26;20023;-68
2024/04/16 02:15:22;;;;;;;6.13;1.50;;;;;;;;;;2253956;26;20006;-70
2024/04/16 02:16:24;;;;;;;10.32;2.22;;;;;;;;;;2267883;26;20002;-70
2024/04/16 02:17:26;;;;;;;14.23;2.30;;;;;;;;;;2270074;26;19998;-69
2024/04/16 02:18:28;;;;;;;11.55;2.33;;;;;;;;;;2269594;26;20125;-70
2024/04/16 02:19:29;;;;;;;8.35;2.50;;;;;;;;;;2270097;26;20005;-69
2024/04/16 02:20:31;;;;;;;12.25;2.08;;;;;;;;;;2270003;26;20092;-69
2024/04/16 02:21:32;;;;;;;11.45;2.17;;;;;;;;;;2270089;26;20008;-69
2024/04/16 02:22:33;;;;;;;7.78;2.13;;;;;;;;;;2267646;26;20002;-68
2024/04/16 02:23:35;;;;;;;12.70;2.00;;;;;;;;;;2253934;26;20024;-70
2024/04/16 02:24:36;;;;;;;10.48;2.35;;;;;;;;;;2254103;26;20013;-70
2024/04/16 02:25:38;;;;;;;5.68;1.92;;;;;;;;;;2269943;26;20070;-70
2024/04/16 02:26:39;;;;;;;9.80;2.25;;;;;;;;;;2269834;26;20005;-70
2024/04/16 02:27:40;;;;;;;8.43;1.88;;;;;;;;;;2269930;26;20003;-70
2024/04/16 02:28:45;;;;;;;7.60;2.22;;;;;;;;;;2269940;26;19993;-69
2024/04/16 02:29:46;;;;;;;10.32;3.03;;;;;;;;;;2268339;26;19998;-69
2024/04/16 02:30:47;;;;;;;8.93;2.50;;;;;;;;;;2269538;26;20128;-69
2024/04/16 02:31:49;;;;;;;11.30;2.05;;;;;;;;;;2269938;26;20029;-70
2024/04/16 02:32:50;;;;;;;12.27;2.53;;;;;;;;;;2269914;26;20010;-70
2024/04/16 02:33:52;;;;;;;8.13;2.45;;;;;;;;;;2269849;26;20035;-70
2024/04/16 02:34:54;;;;;;;7.10;2.20;;;;;;;;;;2267681;26;20003;-69
2024/04/16 02:36:00;;;;;;;10.32;2.47;;;;;;;;;;2269774;26;20049;-70
2024/04/16 02:37:01;;;;;;;9.70;2.15;;;;;;;;;;2269837;26;20348;-70
2024/04/16 02:38:03;;;;;;;8.38;2.28;;;;;;;;;;2268077;26;20016;-70
2024/04/16 02:39:04;;;;;;;6.32;2.08;;;;;;;;;;2269784;26;20010;-70
2024/04/16 02:40:06;;;;;;;8.63;2.10;;;;;;;;;;2269900;26;20524;-70
2024/04/16 02:41:07;;;;;;;10.30;1.90;;;;;;;;;;2269805;26;19998;-70
2024/04/16 02:42:09;;;;;;;10.60;2.38;;;;;;;;;;2269752;26;20018;-71
2024/04/16 02:43:10;;;;;;;9.80;2.33;;;;;;;;;;2269636;26;20013;-69
2024/04/16 02:44:11;;;;;;;9.70;2.75;;;;;;;;;;2269973;26;20041;-70
2024/04/16 02:45:13;;;;;;;10.15;2.63;;;;;;;;;;2250370;26;20471;-71
2024/04/16 02:46:14;;;;;;;8.82;2.60;;;;;;;;;;2253746;26;20003;-70
2024/04/16 02:47:16;;;;;;;13.70;2.70;;;;;;;;;;2269699;26;20464;-70
2024/04/16 02:48:17;;;;;;;8.60;2.60;;;;;;;;;;2269772;26;20014;-68
2024/04/16 02:49:18;;;;;;;6.22;2.35;;;;;;;;;;2269840;26;20011;-69
2024/04/16 02:50:20;;;;;;;11.65;3.45;;;;;;;;;;2269703;26;20030;-70
2024/04/16 02:51:22;;;;;;;17.42;5.15;;;;;;;;;;2269774;26;20022;-69
2024/04/16 02:52:23;;;;;;;14.57;4.60;;;;;;;;;;2267407;26;20022;-71
2024/04/16 02:53:24;;;;;;;20.52;4.28;;;;;;;;;;2269814;26;19999;-69
2024/04/16 02:54:26;;;;;;;16.83;4.80;;;;;;;;;;2269665;26;20004;-71
2024/04/16 02:55:27;;;;;;;17.02;4.63;;;;;;;;;;2269794;26;20447;-70
2024/04/16 02:56:29;;;;;;;13.85;3.75;;;;;;;;;;2269623;26;19994;-67
2024/04/16 02:57:30;;;;;;;17.23;4.47;;;;;;;;;;2269621;26;19998;-68
2024/04/16 02:58:31;;;;;;;14.48;4.35;;;;;;;;;;2269674;26;19995;-68
2024/04/16 02:59:33;;;;;;;17.48;4.18;;;;;;;;;;2267108;26;20018;-70
2024/04/16 03:00:37;;;;;;;12.27;3.67;;;;;;;;;;2269418;26;20351;-69
2024/04/16 03:01:39;;;;;;;14.20;4.07;;;;;;;;;;2253594;26;19995;-69
2024/04/16 03:02:41;;;;;;;12.88;4.13;;;;;;;;;;2254201;26;20006;-69
2024/04/16 03:03:43;;;;;;;18.75;4.22;;;;;;;;;;2267340;26;20002;-70
2024/04/16 03:04:46;;;;;;;18.23;4.22;;;;;;;;;;2269547;26;20014;-69
2024/04/16 03:05:55;;;;;;;12.45;3.65;;;;;;;;;;2269579;26;20013;-67
2024/04/16 03:06:56;;;;;;;15.73;4.28;;;;;;;;;;2268055;26;20009;-69
2024/04/16 03:07:57;;;;;;;14.45;4.22;;;;;;;;;;2269508;26;20004;-69
2024/04/16 03:08:59;;;;;;;16.20;4.63;;;;;;;;;;2269542;26;20072;-69
2024/04/16 03:10:00;;;;;;;20.73;4.55;;;;;;;;;;2269592;26;19998;-66
2024/04/16 03:11:02;;;;;;;11.60;3.72;;;;;;;;;;2269368;26;20017;-69
2024/04/16 03:12:04;;;;;;;16.95;4.10;;;;;;;;;;2267203;26;20469;-68
2024/04/16 03:13:05;;;;;;;15.02;4.20;;;;;;;;;;2269423;26;20030;-69
2024/04/16 03:14:06;;;;;;;21.42;4.82;;;;;;;;;;2271075;26;20327;-69
2024/04/16 03:15:09;;;;;;;21.17;4.93;;;;;;;;;;2271207;26;20002;-70
2024/04/16 03:16:10;;;;;;;19.77;4.40;;;;;;;;;;2270785;26;19998;-69
2024/04/16 03:17:11;;;;;;;20.58;4.85;;;;;;;;;;2271135;26;20459;-69
2024/04/16 03:18:14;;;;;;;15.75;5.03;;;;;;;;;;2266659;26;20047;-69
2024/04/16 03:19:15;;;;;;;19.70;4.93;;;;;;;;;;2254051;26;20038;-69
2024/04/16 03:20:17;;;;;;;16.83;4.38;;;;;;;;;;2255073;26;19998;-67
2024/04/16 03:21:19;;;;;;;23.42;4.50;;;;;;;;;;2271127;26;19998;-69
2024/04/16 03:22:21;;;;;;;18.70;4.03;;;;;;;;;;2271099;26;20044;-69
2024/04/16 03:23:22;;;;;;;16.90;4.70;;;;;;;;;;2271136;26;20010;-70
2024/04/16 03:24:23;;;;;;;12.48;4.60;;;;;;;;;;2268826;26;20458;-70
2024/04/16 03:25:25;;;;;;;16.58;4.93;;;;;;;;;;2271148;26;20013;-67
2024/04/16 03:26:26;;;;;;;14.13;3.60;;;;;;;;;;2271083;26;20131;-70
2024/04/16 03:27:28;;;;;;;17.13;4.78;;;;;;;;;;2271245;26;20013;-70
2024/04/16 03:28:29;;;;;;;13.65;4.25;;;;;;;;;;2271166;26;20427;-69
2024/04/16 03:29:30;;;;;;;20.88;4.47;;;;;;;;;;2271015;26;19998;-70
2024/04/16 03:30:32;;;;;;;14.98;4.15;;;;;;;;;;2270753;26;19998;-68
2024/04/16 03:31:34;;;;;;;16.95;4.68;;;;;;;;;;2268833;26;20064;-69
2024/04/16 03:32:35;;;;;;;21.42;5.03;;;;;;;;;;2270974;26;20030;-70
2024/04/16 03:33:37;;;;;;;11.63;4.18;;;;;;;;;;2270901;26;19994;-69
2024/04/16 03:34:39;;;;;;;16.52;4.22;;;;;;;;;;2270982;26;20490;-70
2024/04/16 03:35:40;;;;;;;18.15;4.15;;;;;;;;;;2271021;26;20009;-70
2024/04/16 03:36:42;;;;;;;15.05;3.70;;;;;;;;;;2271168;26;20002;-70
2024/04/16 03:37:47;;;;;;;16.02;4.38;;;;;;;;;;2268545;26;20020;-70
2024/04/16 03:38:48;;;;;;;13.05;4.05;;;;;;;;;;2271063;26;20010;-70
2024/04/16 03:39:50;;;;;;;15.93;5.00;;;;;;;;;;2270632;26;20031;-69
2024/04/16 03:40:58;;;;;;;13.90;4.68;;;;;;;;;;2270985;26;20358;-70
2024/04/16 03:41:59;;;;;;;16.90;3.88;;;;;;;;;;2269941;26;19994;-69
2024/04/16 03:43:00;;;;;;;16.65;4.47;;;;;;;;;;2270899;26;20439;-70
2024/04/16 03:44:02;;;;;;;17.40;4.28;;;;;;;;;;2251698;26;20014;-70
2024/04/16 03:45:03;;;;;;;14.15;4.63;;;;;;;;;;2252205;26;20002;-70
2024/04/16 03:46:06;;;;;;;16.02;4.45;;;;;;;;;;2270624;26;19998;-69
2024/04/16 03:47:07;;;;;;;18.98;4.57;;;;;;;;;;2270873;26;20446;-71
2024/04/16 03:48:09;;;;;;;16.80;3.35;;;;;;;;;;2270814;26;19998;-69
2024/04/16 03:49:10;;;;;;;20.75;4.40;;;;;;;;;;2254917;26;20019;-70
2024/04/16 03:50:12;;;;;;;15.98;4.68;;;;;;;;;;2255015;26;20072;-71
2024/04/16 03:51:13;;;;;;;13.88;3.95;;;;;;;;;;2268620;26;20002;-70
2024/04/16 03:52:15;;;;;;;16.25;3.97;;;;;;;;;;2270903;26;20002;-70
2024/04/16 03:53:16;;;;;;;15.80;4.65;;;;;;;;;;2270865;26;20009;-70
2024/04/16 03:54:17;;;;;;;14.43;3.70;;;;;;;;;;2270812;26;20012;-70
2024/04/16 03:55:19;;;;;;;16.77;4.05;;;;;;;;;;2270853;26;20010;-70
2024/04/16 03:56:21;;;;;;;13.90;3.75;;;;;;;;;;2270742;26;20026;-69
2024/04/16 03:57:22;;;;;;;15.93;3.67;;;;;;;;;;2270852;26;19994;-70
2024/04/16 03:58:24;;;;;;;13.98;3.72;;;;;;;;;;2267980;26;20126;-68
2024/04/16 03:59:38;;;;;;;21.95;4.38;;;;;;;;;;2270746;26;19994;-68
2024/04/16 04:02:00;;;;;;;15.48;4.55;;;;;;;;;;2259921;26;19998;-69
2024/04/16 04:03:02;;;;;;;16.17;3.88;;;;;;;;;;2270795;26;20074;-69
2024/04/16 04:04:03;;;;;;;19.65;4.85;;;;;;;;;;2268358;26;20006;-69
2024/04/16 04:05:06;;;;;;;16.40;4.57;;;;;;;;;;2270900;26;20001;-69
2024/04/16 04:06:07;;;;;;;14.98;4.00;;;;;;;;;;2270761;26;19994;-68
2024/04/16 04:07:08;;;;;;;18.20;3.63;;;;;;;;;;2270952;26;19998;-69
2024/04/16 04:08:10;;;;;;;17.50;3.88;;;;;;;;;;2270740;26;19998;-69
2024/04/16 04:09:11;;;;;;;16.40;4.28;;;;;;;;;;2270748;26;20010;-69
2024/04/16 04:10:13;;;;;;;14.02;4.00;;;;;;;;;;2270915;26;19998;-68
2024/04/16 04:11:15;;;;;;;14.70;3.83;;;;;;;;;;2268768;26;20012;-69
2024/04/16 04:12:16;;;;;;;13.10;4.72;;;;;;;;;;2270745;26;19998;-69
2024/04/16 04:13:17;;;;;;;12.75;4.25;;;;;;;;;;2270727;26;20002;-68
2024/04/16 04:14:19;;;;;;;13.95;3.88;;;;;;;;;;2270765;26;20357;-69
2024/04/16 04:15:20;;;;;;;17.05;4.32;;;;;;;;;;2270802;26;19998;-66
2024/04/16 04:16:22;;;;;;;18.98;4.13;;;;;;;;;;2270588;26;20066;-69
2024/04/16 04:17:23;;;;;;;18.75;4.03;;;;;;;;;;2268444;26;20010;-69
2024/04/16 04:18:24;;;;;;;10.90;3.72;;;;;;;;;;2254740;26;19998;-69
2024/04/16 04:19:25;;;;;;;16.95;4.32;;;;;;;;;;2254855;26;20456;-70
2024/04/16 04:20:27;;;;;;;15.88;4.35;;;;;;;;;;2270818;26;20070;-67
2024/04/16 04:21:28;;;;;;;21.35;4.35;;;;;;;;;;2270813;26;19998;-69
2024/04/16 04:22:30;;;;;;;8.85;3.70;;;;;;;;;;2270826;26;19998;-68
2024/04/16 04:23:31;;;;;;;16.70;3.80;;;;;;;;;;2270736;26;20006;-69
2024/04/16 04:24:33;;;;;;;18.23;4.07;;;;;;;;;;2268289;26;20415;-68
2024/04/16 04:25:34;;;;;;;17.40;3.90;;;;;;;;;;2270346;26;19998;-68
2024/04/16 04:26:35;;;;;;;15.27;3.40;;;;;;;;;;2270727;26;20458;-70
2024/04/16 04:27:41;;;;;;;14.77;3.83;;;;;;;;;;2270631;26;20009;-70
2024/04/16 04:28:42;;;;;;;19.67;4.15;;;;;;;;;;2270851;26;20475;-71
2024/04/16 04:29:43;;;;;;;13.75;4.03;;;;;;;;;;2268527;26;20010;-69
2024/04/16 04:30:45;;;;;;;13.55;3.83;;;;;;;;;;2270718;26;19998;-70
2024/04/16 04:31:46;;;;;;;14.85;3.88;;;;;;;;;;2270139;26;20034;-70
2024/04/16 04:32:49;;;;;;;18.33;4.22;;;;;;;;;;2270585;26;20048;-70
2024/04/16 04:33:50;;;;;;;17.38;4.35;;;;;;;;;;2270626;26;20419;-69
2024/04/16 04:34:52;;;;;;;13.20;4.22;;;;;;;;;;2270666;26;20005;-69
2024/04/16 04:35:54;;;;;;;20.92;4.43;;;;;;;;;;2268145;26;20010;-69
2024/04/16 04:36:55;;;;;;;15.13;3.47;;;;;;;;;;2270818;26;19994;-68
2024/04/16 04:37:56;;;;;;;14.52;3.85;;;;;;;;;;2270589;26;20017;-69
2024/04/16 04:38:58;;;;;;;14.45;3.80;;;;;;;;;;2270712;26;19998;-70
2024/04/16 04:39:59;;;;;;;13.73;4.10;;;;;;;;;;2270780;26;20043;-70
2024/04/16 04:41:01;;;;;;;15.05;4.43;;;;;;;;;;2270752;26;20097;-70
2024/04/16 04:42:02;;;;;;;15.73;4.05;;;;;;;;;;2270644;26;19998;-69
2024/04/16 04:43:03;;;;;;;17.58;4.07;;;;;;;;;;2268227;26;20346;-70
2024/04/16 04:44:05;;;;;;;14.02;3.63;;;;;;;;;;2270419;26;20091;-70
2024/04/16 04:45:06;;;;;;;12.43;3.35;;;;;;;;;;2253252;26;20111;-69
2024/04/16 04:46:10;;;;;;;10.20;3.78;;;;;;;;;;2254481;26;20470;-69
2024/04/16 04:47:12;;;;;;;14.70;4.15;;;;;;;;;;2270488;26;20014;-69
2024/04/16 04:48:13;;;;;;;18.23;4.00;;;;;;;;;;2268091;26;20002;-69
2024/04/16 04:49:14;;;;;;;14.45;4.00;;;;;;;;;;2270508;26;20343;-69
2024/04/16 04:50:16;;;;;;;14.32;4.18;;;;;;;;;;2270425;26;20022;-69
2024/04/16 04:51:17;;;;;;;12.32;4.05;;;;;;;;;;2254644;26;20002;-69
2024/04/16 04:52:19;;;;;;;11.13;3.83;;;;;;;;;;2254561;26;20009;-66
2024/04/16 04:53:20;;;;;;;14.87;4.33;;;;;;;;;;2270547;26;20002;-69
2024/04/16 04:54:22;;;;;;;15.30;3.85;;;;;;;;;;2270475;26;20000;-69
2024/04/16 04:55:23;;;;;;;12.70;3.47;;;;;;;;;;2268237;26;20024;-69
2024/04/16 04:56:24;;;;;;;15.32;4.13;;;;;;;;;;2270335;26;20401;-67
2024/04/16 04:57:26;;;;;;;16.38;3.55;;;;;;;;;;2270493;26;20431;-69
2024/04/16 04:58:27;;;;;;;13.23;4.10;;;;;;;;;;2270451;26;20013;-70
2024/04/16 04:59:29;;;;;;;19.38;4.32;;;;;;;;;;2270587;26;20357;-69
2024/04/16 05:00:30;;;;;;;14.77;3.40;;;;;;;;;;2270398;26;20070;-68
2024/04/16 05:01:32;;;;;;;17.10;4.10;;;;;;;;;;2270387;26;20009;-68
2024/04/16 05:02:33;;;;;;;11.00;3.88;;;;;;;;;;2265276;26;20006;-70
2024/04/16 05:03:35;;;;;;;12.85;4.03;;;;;;;;;;2265052;26;20492;-68
2024/04/16 05:04:36;;;;;;;15.98;4.00;;;;;;;;;;2265074;26;20629;-70
2024/04/16 05:05:41;;;;;;;11.57;4.32;;;;;;;;;;2270297;26;20319;-70
2024/04/16 05:06:43;;;;;;;10.60;4.15;;;;;;;;;;2252531;26;20018;-70
2024/04/16 05:07:44;;;;;;;13.93;3.50;;;;;;;;;;2250868;26;20006;-70
2024/04/16 05:08:46;;;;;;;15.25;3.72;;;;;;;;;;2267826;26;19998;-72
2024/04/16 05:09:49;;;;;;;18.35;4.10;;;;;;;;;;2266675;26;20010;-71
2024/04/16 05:10:51;;;;;;;14.50;4.75;;;;;;;;;;2265620;26;20431;-72
2024/04/16 05:11:52;;;;;;;19.15;4.65;;;;;;;;;;2268297;26;20013;-72
2024/04/16 05:12:54;;;;;;;14.52;3.80;;;;;;;;;;2249435;26;20010;-71
2024/04/16 05:13:55;;;;;;;13.77;3.88;;;;;;;;;;2252603;26;20018;-71
2024/04/16 05:14:57;;;;;;;11.48;3.75;;;;;;;;;;2268561;26;20013;-72
2024/04/16 05:16:01;;;;;;;17.17;3.83;;;;;;;;;;2267540;26;20013;-71
2024/04/16 05:17:02;;;;;;;19.70;3.45;;;;;;;;;;2251523;26;20784;-73
2024/04/16 05:18:03;;;;;;;16.63;3.60;;;;;;;;;;2251480;26;20018;-71
2024/04/16 05:19:05;;;;;;;12.65;3.92;;;;;;;;;;2267978;26;20002;-72
2024/04/16 05:20:07;;;;;;;20.90;4.47;;;;;;;;;;2267618;26;20021;-73
2024/04/16 05:21:09;;;;;;;14.95;4.32;;;;;;;;;;2267883;26;20027;-71
2024/04/16 05:22:11;;;;;;;14.00;4.45;;;;;;;;;;2267738;26;19998;-71
2024/04/16 05:23:12;;;;;;;11.10;4.05;;;;;;;;;;2267726;26;20010;-72
2024/04/16 05:24:13;;;;;;;17.75;4.78;;;;;;;;;;2266156;26;19998;-72
2024/04/16 05:25:15;;;;;;;14.20;4.20;;;;;;;;;;2266640;26;20034;-73
2024/04/16 05:26:17;;;;;;;14.45;4.20;;;;;;;;;;2267596;26;20047;-72
2024/04/16 05:27:18;;;;;;;17.83;4.88;;;;;;;;;;2268347;26;20016;-71
2024/04/16 05:28:20;;;;;;;17.80;4.07;;;;;;;;;;2267373;26;19998;-72
2024/04/16 05:29:22;;;;;;;16.95;4.25;;;;;;;;;;2267867;26;19998;-72
2024/04/16 05:30:23;;;;;;;13.05;4.55;;;;;;;;;;2265429;26;20021;-72
2024/04/16 05:31:26;;;;;;;19.63;4.45;;;;;;;;;;2268481;26;20119;-71
2024/04/16 05:32:27;;;;;;;12.75;4.07;;;;;;;;;;2267524;26;20013;-72
2024/04/16 05:33:28;;;;;;;16.13;3.72;;;;;;;;;;2267021;26;20840;-71
2024/04/16 05:34:30;;;;;;;14.95;4.15;;;;;;;;;;2268799;26;20399;-72
2024/04/16 05:35:31;;;;;;;16.70;3.90;;;;;;;;;;2251443;26;20487;-72
2024/04/16 05:36:32;;;;;;;13.07;4.45;;;;;;;;;;2250419;26;21588;-71
2024/04/16 05:37:34;;;;;;;11.50;3.63;;;;;;;;;;2266147;26;20864;-70
2024/04/16 05:38:36;;;;;;;15.88;4.40;;;;;;;;;;2266595;26;20125;-69
2024/04/16 05:39:37;;;;;;;12.55;4.40;;;;;;;;;;2267986;26;19998;-69
2024/04/16 05:40:39;;;;;;;13.95;5.35;;;;;;;;;;2267914;26;20005;-70
2024/04/16 05:41:41;;;;;;;12.55;4.53;;;;;;;;;;2268229;26;20324;-67
2024/04/16 05:42:44;;;;;;;18.95;5.43;;;;;;;;;;2267193;26;20006;-64
2024/04/16 05:43:47;;;;;;;12.93;4.28;;;;;;;;;;2267230;26;20058;-67
2024/04/16 05:44:48;;;;;;;16.08;4.47;;;;;;;;;;2268574;26;19994;-67
2024/04/16 05:45:50;;;;;;;16.02;4.15;;;;;;;;;;2267390;26;19998;-65
2024/04/16 05:46:54;;;;;;;21.77;5.15;;;;;;;;;;2266593;26;19991;-64
2024/04/16 05:47:56;;;;;;;14.23;5.13;;;;;;;;;;2265918;26;20483;-67
2024/04/16 05:48:57;;;;;;;13.98;3.95;;;;;;;;;;2267409;26;20326;-67
2024/04/16 05:49:59;;;;;;;18.20;4.78;;;;;;;;;;2267631;26;20346;-68
2024/04/16 05:51:00;;;;;;;16.33;4.70;;;;;;;;;;2267622;26;20346;-65
2024/04/16 05:52:02;;;;;;;17.73;4.65;;;;;;;;;;2267364;26;20002;-69
2024/04/16 05:53:04;;;;;;;11.45;4.63;;;;;;;;;;2264565;26;20009;-64
2024/04/16 05:54:06;;;;;;;20.15;4.60;;;;;;;;;;2267226;26;20018;-68
2024/04/16 05:55:08;;;;;;;16.23;4.78;;;;;;;;;;2268618;26;20532;-68
2024/04/16 05:56:09;;;;;;;15.38;3.85;;;;;;;;;;2250775;26;19998;-70
2024/04/16 05:57:11;;;;;;;16.30;4.32;;;;;;;;;;2252844;26;20135;-73
2024/04/16 05:58:13;;;;;;;15.40;4.55;;;;;;;;;;2268501;26;20070;-63
2024/04/16 05:59:15;;;;;;;16.67;4.60;;;;;;;;;;2267544;26;20006;-65
2024/04/16 06:00:17;;;;;;;16.00;4.32;;;;;;;;;;2266731;26;20026;-62
2024/04/16 06:01:19;;;;;;;16.13;4.05;;;;;;;;;;2264423;26;20016;-62
2024/04/16 06:02:22;;;;;;;14.38;3.90;;;;;;;;;;2266859;26;20010;-65
2024/04/16 06:03:24;;;;;;;13.70;4.28;;;;;;;;;;2262060;26;20350;-63
2024/04/16 06:04:25;;;;;;;18.85;4.38;;;;;;;;;;2264824;26;20010;-60
2024/04/16 06:05:27;;;;;;;15.25;4.47;;;;;;;;;;2263480;26;20002;-61
2024/04/16 06:06:28;;;;;;;14.43;4.15;;;;;;;;;;2266835;26;20469;-61